createdAt,value
2022-12-08T00:01:21.039Z,14.30
2022-12-08T00:03:49.004Z,15.67
2022-12-08T00:06:41.141Z,16.10
2022-12-08T00:09:22.126Z,16.00
2022-12-08T00:11:55.480Z,14.83
2022-12-08T00:14:30.611Z,14.97
2022-12-08T00:16:58.769Z,15.30
2022-12-08T00:19:26.740Z,15.50
2022-12-08T00:21:54.912Z,15.37
2022-12-08T00:24:22.920Z,16.20
2022-12-08T00:26:50.326Z,17.70
2022-12-08T00:29:18.126Z,15.77
2022-12-08T00:31:45.755Z,15.53
2022-12-08T00:34:14.085Z,17.37
2022-12-08T00:36:41.850Z,12.33
2022-12-08T00:39:09.279Z,14.43
2022-12-08T00:41:55.163Z,16.83
2022-12-08T00:44:22.443Z,16.80
2022-12-08T00:46:49.774Z,15.70
2022-12-08T00:49:17.296Z,16.73
2022-12-08T00:51:44.955Z,18.97
2022-12-08T00:54:12.364Z,16.30
2022-12-08T00:56:39.601Z,16.77
2022-12-08T00:59:07.453Z,16.10
2022-12-08T01:01:36.033Z,13.07
2022-12-08T01:04:07.400Z,15.50
2022-12-08T01:06:37.841Z,14.80
2022-12-08T01:09:05.949Z,13.83
2022-12-08T01:11:33.421Z,18.77
2022-12-08T01:14:00.702Z,16.27
2022-12-08T01:16:29.459Z,15.90
2022-12-08T01:18:57.816Z,15.33
2022-12-08T01:21:25.572Z,14.97
2022-12-08T01:23:54.207Z,16.87
2022-12-08T01:26:21.542Z,16.87
2022-12-08T01:28:48.846Z,14.90
2022-12-08T01:31:18.904Z,15.33
2022-12-08T01:33:46.738Z,15.13
2022-12-08T01:36:19.872Z,16.30
2022-12-08T01:38:47.091Z,17.10
2022-12-08T01:41:18.543Z,17.07
2022-12-08T01:44:08.016Z,16.33
2022-12-08T01:46:36.233Z,17.80
2022-12-08T01:49:18.159Z,18.53
2022-12-08T01:52:03.453Z,17.53
2022-12-08T01:54:39.242Z,19.17
2022-12-08T01:57:08.923Z,18.50
2022-12-08T01:59:43.860Z,18.43
2022-12-08T02:02:12.163Z,18.97
2022-12-08T02:04:39.528Z,18.27
2022-12-08T02:07:08.285Z,19.27
2022-12-08T02:09:36.359Z,19.77
2022-12-08T02:12:03.691Z,19.73
2022-12-08T02:14:31.590Z,18.43
2022-12-08T02:17:21.880Z,18.83
2022-12-08T02:20:07.790Z,18.30
2022-12-08T02:22:57.576Z,18.70
2022-12-08T02:25:36.466Z,18.77
2022-12-08T02:28:22.615Z,21.57
2022-12-08T02:31:08.841Z,19.87
2022-12-08T02:33:54.974Z,19.77
2022-12-08T02:36:40.937Z,20.30
2022-12-08T02:39:20.322Z,20.37
2022-12-08T02:41:59.782Z,20.50
2022-12-08T02:44:33.127Z,16.73
2022-12-08T02:47:07.924Z,22.47
2022-12-08T02:49:35.966Z,23.03
2022-12-08T02:52:07.468Z,23.70
2022-12-08T02:54:35.404Z,21.97
2022-12-08T02:57:21.203Z,24.23
2022-12-08T02:59:56.084Z,23.03
2022-12-08T03:02:35.523Z,23.47
2022-12-08T03:05:15.070Z,23.03
2022-12-08T03:07:50.661Z,20.20
2022-12-08T03:10:44.337Z,20.70
2022-12-08T03:13:20.780Z,16.43
2022-12-08T03:15:50.449Z,19.47
2022-12-08T03:18:19.291Z,20.07
2022-12-08T03:20:47.572Z,13.80
2022-12-08T03:23:16.467Z,17.60
2022-12-08T03:25:54.034Z,17.17
2022-12-08T03:28:21.369Z,18.37
2022-12-08T03:30:50.443Z,17.13
2022-12-08T03:33:24.044Z,17.27
2022-12-08T03:35:51.500Z,17.20
2022-12-08T03:38:19.254Z,12.50
2022-12-08T03:41:09.695Z,18.47
2022-12-08T03:43:37.018Z,15.10
2022-12-08T03:46:04.363Z,17.03
2022-12-08T03:48:31.745Z,17.60
2022-12-08T03:50:59.122Z,12.40
2022-12-08T03:53:26.376Z,15.93
2022-12-08T03:55:54.303Z,17.73
2022-12-08T03:58:21.533Z,16.70
2022-12-08T04:00:48.849Z,18.43
2022-12-08T04:03:16.238Z,14.70
2022-12-08T04:05:43.674Z,15.63
2022-12-08T04:08:11.018Z,16.37
2022-12-08T04:10:38.375Z,16.37
2022-12-08T04:13:05.630Z,17.17
2022-12-08T04:15:32.912Z,17.03
2022-12-08T04:18:00.142Z,15.47
2022-12-08T04:20:27.396Z,16.13
2022-12-08T04:22:54.658Z,16.73
2022-12-08T04:25:22.147Z,14.43
2022-12-08T04:27:49.419Z,13.13
2022-12-08T04:30:16.774Z,15.83
2022-12-08T04:32:47.411Z,15.70
2022-12-08T04:35:14.963Z,14.20
2022-12-08T04:37:43.200Z,15.50
2022-12-08T04:40:11.010Z,13.43
2022-12-08T04:42:38.443Z,15.23
2022-12-08T04:45:06.229Z,16.73
2022-12-08T04:47:33.507Z,16.07
2022-12-08T04:50:00.913Z,15.40
2022-12-08T04:52:28.360Z,16.67
2022-12-08T04:54:55.626Z,16.27
2022-12-08T04:57:22.867Z,16.10
2022-12-08T04:59:50.137Z,13.27
2022-12-08T05:02:17.573Z,14.77
2022-12-08T05:04:44.982Z,11.27
2022-12-08T05:07:12.236Z,18.25
2022-12-08T05:09:39.579Z,13.00
2022-12-08T05:12:06.977Z,16.17
2022-12-08T05:14:34.274Z,12.70
2022-12-08T05:17:06.261Z,14.13
2022-12-08T05:19:36.764Z,14.40
2022-12-08T05:22:04.059Z,15.87
2022-12-08T05:24:31.287Z,15.50
2022-12-08T05:26:58.559Z,15.30
2022-12-08T05:29:25.798Z,18.63
2022-12-08T05:31:53.419Z,17.77
2022-12-08T05:34:20.754Z,18.33
2022-12-08T05:36:48.171Z,21.63
2022-12-08T05:39:15.460Z,20.83
2022-12-08T05:41:42.768Z,28.52
2022-12-08T05:44:10.048Z,20.73
2022-12-08T05:46:37.537Z,22.30
2022-12-08T05:49:04.822Z,21.97
2022-12-08T05:51:32.133Z,19.43
2022-12-08T05:53:59.475Z,22.73
2022-12-08T05:56:26.753Z,22.33
2022-12-08T05:58:54.059Z,22.73
2022-12-08T06:01:31.753Z,22.47
2022-12-08T06:03:59.930Z,20.37
2022-12-08T06:06:27.634Z,22.13
2022-12-08T06:08:55.071Z,20.70
2022-12-08T06:11:23.584Z,22.93
2022-12-08T06:13:51.262Z,21.67
2022-12-08T06:16:18.963Z,22.23
2022-12-08T06:18:46.646Z,20.37
2022-12-08T06:21:15.134Z,20.83
2022-12-08T06:23:42.935Z,21.00
2022-12-08T06:26:12.882Z,16.53
2022-12-08T06:28:40.579Z,20.20
2022-12-08T06:31:12.482Z,20.90
2022-12-08T06:33:39.818Z,15.50
2022-12-08T06:36:07.632Z,14.97
2022-12-08T06:38:38.231Z,19.83
2022-12-08T06:41:09.120Z,20.57
2022-12-08T06:43:36.504Z,16.03
2022-12-08T06:46:05.841Z,18.93
2022-12-08T06:48:33.262Z,19.60
2022-12-08T06:51:10.686Z,19.53
2022-12-08T06:53:38.169Z,18.50
2022-12-08T06:56:05.855Z,19.10
2022-12-08T06:58:33.278Z,18.20
2022-12-08T07:01:11.452Z,20.97
2022-12-08T07:03:39.531Z,10.93
2022-12-08T07:06:07.343Z,19.87
2022-12-08T07:08:35.237Z,23.20
2022-12-08T07:11:09.867Z,23.73
2022-12-08T07:13:37.169Z,21.83
2022-12-08T07:16:11.099Z,20.17
2022-12-08T07:18:38.714Z,18.40
2022-12-08T07:21:14.765Z,21.57
2022-12-08T07:23:42.639Z,23.73
2022-12-08T07:26:13.752Z,22.93
2022-12-08T07:28:44.310Z,19.77
2022-12-08T07:31:19.036Z,22.40
2022-12-08T07:33:46.495Z,24.03
2022-12-08T07:36:13.816Z,21.03
2022-12-08T07:38:41.132Z,22.30
2022-12-08T07:41:12.204Z,23.50
2022-12-08T07:43:39.732Z,20.57
2022-12-08T07:46:07.125Z,21.67
2022-12-08T07:48:34.424Z,17.40
2022-12-08T07:51:02.305Z,15.70
2022-12-08T07:53:29.589Z,19.67
2022-12-08T07:55:56.872Z,19.47
2022-12-08T07:58:24.545Z,19.23
2022-12-08T08:00:52.194Z,17.27
2022-12-08T08:03:19.566Z,19.60
2022-12-08T08:05:49.183Z,18.73
2022-12-08T08:08:16.962Z,16.67
2022-12-08T08:10:44.804Z,21.13
2022-12-08T08:13:12.141Z,17.53
2022-12-08T08:15:39.904Z,12.93
2022-12-08T08:18:07.891Z,15.77
2022-12-08T08:20:35.440Z,15.30
2022-12-08T08:23:02.792Z,15.47
2022-12-08T08:25:30.129Z,16.23
2022-12-08T08:27:57.414Z,13.23
2022-12-08T08:30:24.740Z,15.97
2022-12-08T08:32:52.389Z,16.80
2022-12-08T08:35:19.754Z,17.40
2022-12-08T08:37:49.233Z,15.47
2022-12-08T08:40:17.644Z,17.03
2022-12-08T08:42:44.907Z,18.03
2022-12-08T08:45:12.224Z,19.70
2022-12-08T08:47:39.526Z,19.30
2022-12-08T08:50:07.868Z,19.77
2022-12-08T08:52:35.456Z,16.80
2022-12-08T08:55:02.792Z,20.37
2022-12-08T08:57:30.097Z,19.50
2022-12-08T08:59:57.351Z,19.27
2022-12-08T09:02:25.358Z,19.40
2022-12-08T09:04:52.655Z,19.53
2022-12-08T09:07:19.968Z,18.60
2022-12-08T09:09:47.257Z,19.10
2022-12-08T09:12:14.600Z,18.83
2022-12-08T09:14:41.895Z,18.97
2022-12-08T09:17:09.230Z,18.43
2022-12-08T09:19:36.508Z,19.17
2022-12-08T09:22:03.837Z,18.50
2022-12-08T09:24:31.111Z,18.80
2022-12-08T09:26:58.381Z,17.43
2022-12-08T09:29:28.763Z,18.43
2022-12-08T09:31:59.879Z,19.43
2022-12-08T09:34:27.358Z,18.70
2022-12-08T09:36:54.604Z,19.43
2022-12-08T09:39:21.851Z,15.33
2022-12-08T09:41:58.238Z,15.87
2022-12-08T09:44:40.485Z,12.77
2022-12-08T09:47:14.216Z,12.83
2022-12-08T09:49:43.288Z,13.40
2022-12-08T09:52:21.162Z,13.17
2022-12-08T09:54:48.692Z,15.53
2022-12-08T09:57:17.691Z,14.73
2022-12-08T09:59:46.559Z,15.13
2022-12-08T10:02:24.741Z,14.37
2022-12-08T10:04:54.921Z,14.17
2022-12-08T10:07:25.476Z,17.27
2022-12-08T10:10:22.486Z,15.60
2022-12-08T10:12:54.884Z,15.63
2022-12-08T10:15:37.430Z,15.23
2022-12-08T10:18:10.064Z,12.40
2022-12-08T10:20:38.840Z,11.23
2022-12-08T10:23:06.201Z,13.23
2022-12-08T10:25:56.437Z,14.13
2022-12-08T10:28:23.702Z,11.57
2022-12-08T10:30:51.000Z,10.10
2022-12-08T10:33:20.296Z,9.40
2022-12-08T10:35:49.906Z,11.73
2022-12-08T10:38:18.789Z,13.13
2022-12-08T10:40:47.261Z,12.13
2022-12-08T10:43:15.760Z,12.03
2022-12-08T10:45:43.943Z,12.37
2022-12-08T10:48:16.594Z,13.73
2022-12-08T10:50:43.900Z,12.23
2022-12-08T10:53:16.086Z,13.67
2022-12-08T10:55:45.839Z,11.93
2022-12-08T10:58:25.336Z,12.40
2022-12-08T11:00:54.683Z,12.67
2022-12-08T11:03:25.594Z,12.90
2022-12-08T11:05:56.633Z,10.83
2022-12-08T11:08:24.612Z,12.27
2022-12-08T11:10:52.034Z,11.57
2022-12-08T11:13:21.962Z,11.53
2022-12-08T11:15:50.209Z,11.57
2022-12-08T11:18:28.681Z,11.17
2022-12-08T11:21:00.465Z,12.23
2022-12-08T11:23:28.557Z,11.90
2022-12-08T11:25:58.868Z,12.70
2022-12-08T11:28:26.478Z,13.07
2022-12-08T11:30:57.633Z,11.50
2022-12-08T11:33:28.988Z,11.13
2022-12-08T11:36:05.408Z,12.53
2022-12-08T11:38:33.676Z,11.23
2022-12-08T11:41:24.285Z,11.73
2022-12-08T11:43:54.712Z,10.67
2022-12-08T11:46:24.741Z,10.70
2022-12-08T11:49:05.961Z,9.57
2022-12-08T11:51:37.170Z,11.30
2022-12-08T11:54:07.565Z,10.13
2022-12-08T11:56:37.252Z,11.83
2022-12-08T11:59:11.317Z,10.47
2022-12-08T12:01:42.539Z,9.50
2022-12-08T12:04:17.746Z,8.57
2022-12-08T12:07:03.660Z,9.63
2022-12-08T12:09:43.197Z,9.83
2022-12-08T12:12:25.259Z,8.50
2022-12-08T12:15:12.577Z,9.00
2022-12-08T12:17:55.261Z,9.23
2022-12-08T12:20:28.892Z,9.73
2022-12-08T12:23:05.906Z,9.23
2022-12-08T12:25:34.170Z,9.67
2022-12-08T12:28:04.150Z,8.70
2022-12-08T12:30:50.763Z,10.13
2022-12-08T12:33:19.474Z,8.07
2022-12-08T12:35:50.563Z,10.23
2022-12-08T12:38:45.137Z,9.10
2022-12-08T12:41:14.022Z,8.23
2022-12-08T12:43:41.618Z,7.87
2022-12-08T12:46:24.294Z,8.87
2022-12-08T12:48:52.477Z,7.47
2022-12-08T12:51:38.368Z,8.73
2022-12-08T12:54:25.823Z,8.50
2022-12-08T12:56:53.213Z,6.73
2022-12-08T12:59:29.655Z,7.63
2022-12-08T13:01:57.383Z,8.40
2022-12-08T13:04:36.105Z,9.20
2022-12-08T13:07:03.582Z,9.53
2022-12-08T13:09:35.880Z,8.57
2022-12-08T13:12:19.917Z,8.70
2022-12-08T13:14:49.649Z,8.80
2022-12-08T13:17:20.890Z,9.30
2022-12-08T13:19:52.070Z,8.13
2022-12-08T13:22:38.334Z,7.07
2022-12-08T13:25:24.234Z,8.03
2022-12-08T13:27:55.131Z,7.60
2022-12-08T13:30:52.100Z,6.97
2022-12-08T13:33:27.641Z,7.00
2022-12-08T13:36:03.963Z,5.80
2022-12-08T13:38:33.839Z,6.73
2022-12-08T13:41:02.203Z,6.57
2022-12-08T13:44:10.569Z,5.63
2022-12-08T13:58:03.428Z,5.33
2022-12-08T14:00:30.938Z,5.00
2022-12-08T14:03:00.232Z,4.50
2022-12-08T14:05:55.079Z,4.00
2022-12-08T14:08:57.144Z,5.17
2022-12-08T14:11:08.839Z,5.50
2022-12-08T14:13:36.199Z,5.73
2022-12-08T14:16:03.633Z,6.00
2022-12-08T14:18:32.173Z,6.60
2022-12-08T14:23:51.382Z,6.53
2022-12-08T14:26:18.717Z,6.00
2022-12-08T14:28:46.119Z,6.97
2022-12-08T14:31:14.578Z,7.43
2022-12-08T14:33:42.985Z,7.30
2022-12-08T14:36:12.320Z,7.03
2022-12-08T14:38:39.995Z,7.83
2022-12-08T14:41:08.882Z,7.03
2022-12-08T14:43:36.370Z,7.13
2022-12-08T14:46:19.839Z,7.77
2022-12-08T14:48:47.383Z,6.67
2022-12-08T14:51:20.865Z,7.47
2022-12-08T14:53:48.418Z,8.50
2022-12-08T14:56:19.805Z,8.50
2022-12-08T14:58:48.669Z,8.00
2022-12-08T15:01:17.749Z,7.80
2022-12-08T15:03:50.636Z,8.83
2022-12-08T15:06:20.894Z,7.97
2022-12-08T15:08:52.368Z,8.73
2022-12-08T15:11:26.945Z,8.53
2022-12-08T15:13:54.596Z,7.57
2022-12-08T15:16:25.621Z,8.33
2022-12-08T15:19:05.365Z,7.30
2022-12-08T15:21:36.094Z,8.13
2022-12-08T15:24:03.725Z,8.33
2022-12-08T15:26:34.708Z,7.60
2022-12-08T15:29:11.489Z,9.27
2022-12-08T15:31:39.011Z,8.20
2022-12-08T15:34:06.369Z,9.50
2022-12-08T15:36:33.730Z,8.63
2022-12-08T15:39:01.251Z,8.97
2022-12-08T15:41:28.587Z,9.17
2022-12-08T15:43:55.995Z,10.00
2022-12-08T15:46:23.413Z,9.57
2022-12-08T15:48:56.468Z,9.63
2022-12-08T15:51:25.506Z,10.33
2022-12-08T15:53:52.967Z,10.53
2022-12-08T15:56:28.487Z,9.33
2022-12-08T15:58:57.708Z,9.63
2022-12-08T16:01:26.303Z,10.57
2022-12-08T16:07:19.536Z,8.57
2022-12-08T16:09:29.570Z,9.77
2022-12-08T16:12:16.116Z,9.37
2022-12-08T16:15:47.132Z,9.67
2022-12-08T16:17:34.384Z,9.13
2022-12-08T16:20:02.455Z,8.90
2022-12-08T16:25:20.905Z,9.60
2022-12-08T16:28:01.252Z,10.77
2022-12-08T16:30:29.205Z,10.00
2022-12-08T16:32:56.606Z,10.10
2022-12-08T16:35:24.128Z,10.63
2022-12-08T16:37:51.646Z,10.47
2022-12-08T16:40:19.230Z,10.20
2022-12-08T16:42:48.494Z,10.60
2022-12-08T16:45:23.618Z,10.87
2022-12-08T16:47:52.591Z,10.97
2022-12-08T16:50:21.462Z,9.20
2022-12-08T16:52:49.417Z,11.53
2022-12-08T16:55:17.965Z,12.37
2022-12-08T16:57:47.075Z,11.43
2022-12-08T17:00:18.183Z,11.10
2022-12-08T17:02:45.540Z,12.13
2022-12-08T17:05:15.098Z,12.23
2022-12-08T17:07:42.992Z,11.87
2022-12-08T17:10:12.373Z,12.87
2022-12-08T17:12:39.878Z,13.47
2022-12-08T17:15:11.828Z,12.30
2022-12-08T17:17:39.484Z,12.03
2022-12-08T17:20:08.604Z,12.17
2022-12-08T17:22:36.475Z,13.70
2022-12-08T17:25:04.587Z,13.20
2022-12-08T17:27:32.220Z,12.73
2022-12-08T17:29:59.608Z,13.73
2022-12-08T17:32:27.070Z,14.70
2022-12-08T17:34:54.525Z,15.83
2022-12-08T17:37:21.825Z,14.00
2022-12-08T17:39:49.231Z,13.30
2022-12-08T17:42:16.809Z,15.10
2022-12-08T17:44:46.512Z,15.70
2022-12-08T17:47:13.789Z,14.30
2022-12-08T17:49:41.181Z,15.47
2022-12-08T17:52:08.552Z,14.33
2022-12-08T17:54:36.433Z,15.00
2022-12-08T17:57:03.860Z,15.47
2022-12-08T17:59:31.380Z,15.30
2022-12-08T18:01:59.244Z,16.77
2022-12-08T18:04:27.026Z,16.23
2022-12-08T18:06:55.002Z,15.80
2022-12-08T18:09:22.602Z,16.03
2022-12-08T18:11:50.037Z,14.97
2022-12-08T18:14:17.833Z,15.37
2022-12-08T18:16:46.361Z,16.50
2022-12-08T18:19:14.644Z,15.43
2022-12-08T18:21:42.711Z,15.87
2022-12-08T18:24:16.202Z,16.87
2022-12-08T18:26:43.586Z,16.83
2022-12-08T18:29:10.954Z,19.53
2022-12-08T18:31:38.335Z,18.13
2022-12-08T18:34:05.803Z,18.80
2022-12-08T18:36:33.193Z,16.93
2022-12-08T18:39:03.368Z,17.70
2022-12-08T18:41:33.166Z,19.17
2022-12-08T18:44:00.584Z,21.50
2022-12-08T18:46:28.074Z,19.57
2022-12-08T18:49:03.335Z,19.00
2022-12-08T18:51:33.355Z,18.60
2022-12-08T18:54:00.786Z,18.83
2022-12-08T18:56:32.352Z,17.07
2022-12-08T18:59:03.860Z,20.63
2022-12-08T19:01:35.397Z,20.03
2022-12-08T19:04:27.526Z,20.43
2022-12-08T19:06:52.499Z,29.88
2022-12-08T19:09:20.336Z,24.80
2022-12-08T19:11:47.825Z,23.27
2022-12-08T19:14:15.268Z,23.60
2022-12-08T19:16:42.737Z,25.63
2022-12-08T19:19:10.243Z,24.90
2022-12-08T19:21:44.561Z,22.10
2022-12-08T19:24:13.375Z,20.30
2022-12-08T19:26:40.718Z,19.57
2022-12-08T19:29:08.477Z,20.07
2022-12-08T19:31:37.457Z,18.57
2022-12-08T19:34:09.145Z,19.07
2022-12-08T19:36:42.163Z,21.43
2022-12-08T19:39:32.701Z,20.33
2022-12-08T19:42:18.793Z,20.53
2022-12-08T19:44:55.228Z,21.13
2022-12-08T19:47:26.818Z,20.83
2022-12-08T19:50:15.177Z,19.27
2022-12-08T19:52:43.270Z,21.20
2022-12-08T19:55:10.799Z,21.87
2022-12-08T19:57:38.447Z,23.43
2022-12-08T20:00:06.921Z,20.67
2022-12-08T20:02:36.879Z,20.50
2022-12-08T20:05:05.428Z,19.03
2022-12-08T20:07:32.901Z,21.30
2022-12-08T20:10:00.593Z,26.40
2022-12-08T20:12:27.996Z,24.87
2022-12-08T20:14:55.503Z,31.20
2022-12-08T20:17:22.876Z,29.80
2022-12-08T20:19:50.358Z,26.67
2022-12-08T20:22:17.816Z,26.50
2022-12-08T20:24:48.950Z,27.43
2022-12-08T20:27:19.689Z,26.73
2022-12-08T20:29:47.098Z,24.83
2022-12-08T20:32:14.555Z,23.37
2022-12-08T20:34:42.132Z,22.40
2022-12-08T20:37:09.661Z,20.10
2022-12-08T20:39:37.195Z,21.23
2022-12-08T20:42:04.814Z,21.73
2022-12-08T20:44:32.189Z,20.07
2022-12-08T20:46:59.687Z,21.27
2022-12-08T20:49:34.545Z,23.42
2022-12-08T20:52:03.287Z,22.10
2022-12-08T20:54:30.963Z,20.07
2022-12-08T20:56:58.743Z,21.27
2022-12-08T20:59:26.972Z,23.00
2022-12-08T21:01:55.377Z,21.90
2022-12-08T21:04:23.501Z,22.17
2022-12-08T21:06:51.922Z,21.27
2022-12-08T21:09:19.599Z,22.43
2022-12-08T21:11:47.296Z,28.27
2022-12-08T21:14:14.894Z,24.10
2022-12-08T21:16:42.519Z,24.87
2022-12-08T21:19:11.177Z,25.50
2022-12-08T21:21:38.592Z,24.80
2022-12-08T21:24:06.563Z,25.03
2022-12-08T21:26:34.497Z,23.53
2022-12-08T21:29:01.994Z,25.73
2022-12-08T21:31:31.915Z,24.80
2022-12-08T21:33:59.836Z,23.63
2022-12-08T21:36:27.818Z,23.87
2022-12-08T21:38:55.951Z,24.63
2022-12-08T21:41:43.214Z,24.30
2022-12-08T21:44:11.578Z,23.60
2022-12-08T21:46:39.291Z,23.10
2022-12-08T21:49:07.095Z,24.47
2022-12-08T21:51:37.870Z,22.37
2022-12-08T21:54:05.523Z,23.10
2022-12-08T21:56:33.022Z,23.80
2022-12-08T21:59:00.553Z,27.63
2022-12-08T22:01:28.134Z,27.53
2022-12-08T22:03:55.834Z,25.87
2022-12-08T22:06:24.543Z,26.97
2022-12-08T22:08:52.453Z,26.40
2022-12-08T22:11:20.264Z,25.83
2022-12-08T22:13:47.749Z,26.60
2022-12-08T22:16:15.473Z,33.97
2022-12-08T22:18:43.806Z,37.37
2022-12-08T22:21:12.405Z,38.97
2022-12-08T22:23:40.321Z,34.87
2022-12-08T22:26:08.684Z,35.17
2022-12-08T22:28:38.714Z,37.03
2022-12-08T22:31:18.424Z,36.73
2022-12-08T22:33:45.999Z,39.50
2022-12-08T22:36:18.434Z,34.53
2022-12-08T22:38:46.044Z,33.77
2022-12-08T22:41:14.588Z,32.63
2022-12-08T22:43:42.528Z,30.27
2022-12-08T22:46:12.268Z,30.10
2022-12-08T22:48:40.728Z,31.60
2022-12-08T22:51:08.966Z,30.20
2022-12-08T22:53:36.540Z,32.10
2022-12-08T22:56:04.904Z,30.97
2022-12-08T22:58:32.341Z,28.50
2022-12-08T23:00:59.887Z,29.90
2022-12-08T23:03:27.569Z,29.10
2022-12-08T23:05:55.475Z,28.03
2022-12-08T23:08:23.642Z,27.30
2022-12-08T23:10:51.821Z,31.47
2022-12-08T23:13:19.725Z,28.10
2022-12-08T23:15:47.711Z,27.70
2022-12-08T23:18:16.270Z,26.47
2022-12-08T23:20:44.149Z,27.27
2022-12-08T23:23:12.543Z,28.50
2022-12-08T23:25:41.048Z,27.13
2022-12-08T23:28:09.331Z,28.53
2022-12-08T23:30:37.065Z,29.93
2022-12-08T23:33:04.794Z,27.93
2022-12-08T23:35:32.493Z,29.37
2022-12-08T23:38:00.325Z,28.23
2022-12-08T23:40:27.925Z,27.27
2022-12-08T23:42:55.511Z,30.35
2022-12-08T23:45:22.989Z,28.17
2022-12-08T23:47:50.380Z,28.47
2022-12-08T23:50:17.882Z,27.60
2022-12-08T23:52:45.455Z,32.47
2022-12-08T23:55:13.101Z,29.50
2022-12-08T23:57:40.572Z,32.00
